sensor_id;sensor_type;location;lat;lon;timestamp;temperature;humidity
48768;DHT22;34933;40.968;14.538;2023-11-21T00:01:40;16.10;99.90
48768;DHT22;34933;40.968;14.538;2023-11-21T00:04:24;16.00;99.90
48768;DHT22;34933;40.968;14.538;2023-11-21T00:07:09;16.00;99.90
48768;DHT22;34933;40.968;14.538;2023-11-21T00:09:54;16.00;99.90
48768;DHT22;34933;40.968;14.538;2023-11-21T00:12:40;16.00;99.90
48768;DHT22;34933;40.968;14.538;2023-11-21T00:15:26;16.00;99.90
48768;DHT22;34933;40.968;14.538;2023-11-21T00:18:11;16.00;99.90
48768;DHT22;34933;40.968;14.538;2023-11-21T00:20:55;15.90;99.90
48768;DHT22;34933;40.968;14.538;2023-11-21T00:23:43;15.90;99.90
48768;DHT22;34933;40.968;14.538;2023-11-21T00:26:27;15.80;99.90
48768;DHT22;34933;40.968;14.538;2023-11-21T00:29:19;15.70;99.90
48768;DHT22;34933;40.968;14.538;2023-11-21T00:32:07;15.60;99.90
48768;DHT22;34933;40.968;14.538;2023-11-21T00:34:52;15.50;99.90
48768;DHT22;34933;40.968;14.538;2023-11-21T00:37:36;15.50;99.90
48768;DHT22;34933;40.968;14.538;2023-11-21T00:40:24;15.40;99.90
48768;DHT22;34933;40.968;14.538;2023-11-21T00:43:09;15.40;99.90
48768;DHT22;34933;40.968;14.538;2023-11-21T00:45:55;15.40;99.90
48768;DHT22;34933;40.968;14.538;2023-11-21T00:48:40;15.40;99.90
48768;DHT22;34933;40.968;14.538;2023-11-21T00:51:25;15.40;99.90
48768;DHT22;34933;40.968;14.538;2023-11-21T00:54:09;15.40;99.90
48768;DHT22;34933;40.968;14.538;2023-11-21T00:56:54;15.30;99.90
48768;DHT22;34933;40.968;14.538;2023-11-21T00:59:38;15.20;99.90
48768;DHT22;34933;40.968;14.538;2023-11-21T01:02:25;15.10;99.90
48768;DHT22;34933;40.968;14.538;2023-11-21T01:05:10;15.10;99.90
48768;DHT22;34933;40.968;14.538;2023-11-21T01:07:54;15.00;99.90
48768;DHT22;34933;40.968;14.538;2023-11-21T01:10:39;14.80;99.90
48768;DHT22;34933;40.968;14.538;2023-11-21T01:13:24;14.80;99.90
48768;DHT22;34933;40.968;14.538;2023-11-21T01:16:12;14.70;99.90
48768;DHT22;34933;40.968;14.538;2023-11-21T01:18:57;14.60;99.90
48768;DHT22;34933;40.968;14.538;2023-11-21T01:21:42;14.50;99.90
48768;DHT22;34933;40.968;14.538;2023-11-21T01:24:27;14.40;99.90
48768;DHT22;34933;40.968;14.538;2023-11-21T01:27:11;14.40;99.90
48768;DHT22;34933;40.968;14.538;2023-11-21T01:29:56;14.40;99.90
48768;DHT22;34933;40.968;14.538;2023-11-21T01:32:41;14.40;99.90
48768;DHT22;34933;40.968;14.538;2023-11-21T01:35:25;14.50;99.90
48768;DHT22;34933;40.968;14.538;2023-11-21T01:38:11;14.60;99.90
48768;DHT22;34933;40.968;14.538;2023-11-21T01:40:56;14.50;99.90
48768;DHT22;34933;40.968;14.538;2023-11-21T01:43:41;14.50;99.90
48768;DHT22;34933;40.968;14.538;2023-11-21T01:46:26;14.50;99.90
48768;DHT22;34933;40.968;14.538;2023-11-21T01:49:10;14.60;99.90
48768;DHT22;34933;40.968;14.538;2023-11-21T01:51:57;14.60;99.90
48768;DHT22;34933;40.968;14.538;2023-11-21T01:54:42;14.70;99.90
48768;DHT22;34933;40.968;14.538;2023-11-21T01:57:27;14.80;99.90
48768;DHT22;34933;40.968;14.538;2023-11-21T02:00:13;14.80;99.90
48768;DHT22;34933;40.968;14.538;2023-11-21T02:03:01;14.90;99.90
48768;DHT22;34933;40.968;14.538;2023-11-21T02:05:46;15.00;99.90
48768;DHT22;34933;40.968;14.538;2023-11-21T02:08:31;15.10;99.90
48768;DHT22;34933;40.968;14.538;2023-11-21T02:11:16;15.10;99.90
48768;DHT22;34933;40.968;14.538;2023-11-21T02:14:01;15.10;99.90
48768;DHT22;34933;40.968;14.538;2023-11-21T02:16:45;15.10;99.90
48768;DHT22;34933;40.968;14.538;2023-11-21T02:19:33;15.10;99.90
48768;DHT22;34933;40.968;14.538;2023-11-21T02:22:19;15.10;99.90
48768;DHT22;34933;40.968;14.538;2023-11-21T02:25:04;15.10;99.90
48768;DHT22;34933;40.968;14.538;2023-11-21T02:27:49;15.10;99.90
48768;DHT22;34933;40.968;14.538;2023-11-21T02:30:34;15.10;99.90
48768;DHT22;34933;40.968;14.538;2023-11-21T02:33:18;15.10;99.90
48768;DHT22;34933;40.968;14.538;2023-11-21T02:36:04;15.10;99.90
48768;DHT22;34933;40.968;14.538;2023-11-21T02:38:50;15.10;99.90
48768;DHT22;34933;40.968;14.538;2023-11-21T02:41:34;15.10;99.90
48768;DHT22;34933;40.968;14.538;2023-11-21T02:44:19;15.00;99.90
48768;DHT22;34933;40.968;14.538;2023-11-21T02:47:04;15.00;99.90
48768;DHT22;34933;40.968;14.538;2023-11-21T02:49:49;15.00;99.90
48768;DHT22;34933;40.968;14.538;2023-11-21T02:52:34;15.00;99.90
48768;DHT22;34933;40.968;14.538;2023-11-21T02:55:19;15.00;99.90
48768;DHT22;34933;40.968;14.538;2023-11-21T02:58:04;15.00;99.90
48768;DHT22;34933;40.968;14.538;2023-11-21T03:00:49;15.10;99.90
48768;DHT22;34933;40.968;14.538;2023-11-21T03:03:33;15.10;99.90
48768;DHT22;34933;40.968;14.538;2023-11-21T03:06:19;15.10;99.90
48768;DHT22;34933;40.968;14.538;2023-11-21T03:09:03;15.20;99.90
48768;DHT22;34933;40.968;14.538;2023-11-21T03:11:48;15.20;99.90
48768;DHT22;34933;40.968;14.538;2023-11-21T03:14:33;15.20;99.90
48768;DHT22;34933;40.968;14.538;2023-11-21T03:17:17;15.10;99.90
48768;DHT22;34933;40.968;14.538;2023-11-21T03:20:03;14.90;99.90
48768;DHT22;34933;40.968;14.538;2023-11-21T03:22:48;14.80;99.90
48768;DHT22;34933;40.968;14.538;2023-11-21T03:25:33;14.90;99.90
48768;DHT22;34933;40.968;14.538;2023-11-21T03:28:17;14.90;99.90
48768;DHT22;34933;40.968;14.538;2023-11-21T03:31:02;14.90;99.90
48768;DHT22;34933;40.968;14.538;2023-11-21T03:33:48;14.70;99.90
48768;DHT22;34933;40.968;14.538;2023-11-21T03:36:32;14.60;99.90
48768;DHT22;34933;40.968;14.538;2023-11-21T03:39:17;14.50;99.90
48768;DHT22;34933;40.968;14.538;2023-11-21T03:42:02;14.40;99.90
48768;DHT22;34933;40.968;14.538;2023-11-21T03:44:46;14.30;99.90
48768;DHT22;34933;40.968;14.538;2023-11-21T03:47:32;14.30;99.90
48768;DHT22;34933;40.968;14.538;2023-11-21T03:50:16;14.10;99.90
48768;DHT22;34933;40.968;14.538;2023-11-21T03:53:02;14.00;99.90
48768;DHT22;34933;40.968;14.538;2023-11-21T03:55:48;14.00;99.90
48768;DHT22;34933;40.968;14.538;2023-11-21T03:58:33;13.90;99.90
48768;DHT22;34933;40.968;14.538;2023-11-21T04:01:22;13.90;99.90
48768;DHT22;34933;40.968;14.538;2023-11-21T04:04:07;13.80;99.90
48768;DHT22;34933;40.968;14.538;2023-11-21T04:06:51;13.80;99.90
48768;DHT22;34933;40.968;14.538;2023-11-21T04:09:36;13.80;99.90
48768;DHT22;34933;40.968;14.538;2023-11-21T04:12:21;13.70;99.90
48768;DHT22;34933;40.968;14.538;2023-11-21T04:15:06;13.60;99.90
48768;DHT22;34933;40.968;14.538;2023-11-21T04:17:52;13.60;99.90
48768;DHT22;34933;40.968;14.538;2023-11-21T04:20:37;13.50;99.90
48768;DHT22;34933;40.968;14.538;2023-11-21T04:23:22;13.60;99.90
48768;DHT22;34933;40.968;14.538;2023-11-21T04:26:06;13.70;99.90
48768;DHT22;34933;40.968;14.538;2023-11-21T04:28:51;13.80;99.90
48768;DHT22;34933;40.968;14.538;2023-11-21T04:31:36;13.90;99.90
48768;DHT22;34933;40.968;14.538;2023-11-21T04:34:21;13.90;99.90
48768;DHT22;34933;40.968;14.538;2023-11-21T04:37:06;13.90;99.90
48768;DHT22;34933;40.968;14.538;2023-11-21T04:39:50;14.00;99.90
48768;DHT22;34933;40.968;14.538;2023-11-21T04:42:36;14.00;99.90
48768;DHT22;34933;40.968;14.538;2023-11-21T04:45:21;14.00;99.90
48768;DHT22;34933;40.968;14.538;2023-11-21T04:48:05;14.00;99.90
48768;DHT22;34933;40.968;14.538;2023-11-21T04:50:50;13.90;99.90
48768;DHT22;34933;40.968;14.538;2023-11-21T04:53:35;14.00;99.90
48768;DHT22;34933;40.968;14.538;2023-11-21T04:56:20;13.90;99.90
48768;DHT22;34933;40.968;14.538;2023-11-21T04:59:05;13.80;99.90
48768;DHT22;34933;40.968;14.538;2023-11-21T05:01:49;13.70;99.90
48768;DHT22;34933;40.968;14.538;2023-11-21T05:04:34;13.60;99.90
48768;DHT22;34933;40.968;14.538;2023-11-21T05:07:19;13.60;99.90
48768;DHT22;34933;40.968;14.538;2023-11-21T05:10:05;13.50;99.90
48768;DHT22;34933;40.968;14.538;2023-11-21T05:12:55;13.40;99.90
48768;DHT22;34933;40.968;14.538;2023-11-21T05:15:40;13.30;99.90
48768;DHT22;34933;40.968;14.538;2023-11-21T05:18:25;13.20;99.90
48768;DHT22;34933;40.968;14.538;2023-11-21T05:21:14;13.00;99.90
48768;DHT22;34933;40.968;14.538;2023-11-21T05:23:59;13.00;99.90
48768;DHT22;34933;40.968;14.538;2023-11-21T05:26:43;13.00;99.90
48768;DHT22;34933;40.968;14.538;2023-11-21T05:29:28;12.90;99.90
48768;DHT22;34933;40.968;14.538;2023-11-21T05:32:13;12.90;99.90
48768;DHT22;34933;40.968;14.538;2023-11-21T05:34:57;12.80;99.90
48768;DHT22;34933;40.968;14.538;2023-11-21T05:37:43;12.70;99.90
48768;DHT22;34933;40.968;14.538;2023-11-21T05:40:28;12.70;99.90
48768;DHT22;34933;40.968;14.538;2023-11-21T05:43:14;12.60;99.90
48768;DHT22;34933;40.968;14.538;2023-11-21T05:45:59;12.60;99.90
48768;DHT22;34933;40.968;14.538;2023-11-21T05:48:44;12.60;99.90
48768;DHT22;34933;40.968;14.538;2023-11-21T05:51:29;12.60;99.90
48768;DHT22;34933;40.968;14.538;2023-11-21T05:54:14;12.50;99.90
48768;DHT22;34933;40.968;14.538;2023-11-21T05:56:59;12.50;99.90
48768;DHT22;34933;40.968;14.538;2023-11-21T05:59:44;12.50;99.90
48768;DHT22;34933;40.968;14.538;2023-11-21T06:02:30;12.50;99.90
48768;DHT22;34933;40.968;14.538;2023-11-21T06:05:15;12.50;99.90
48768;DHT22;34933;40.968;14.538;2023-11-21T06:07:59;12.60;99.90
48768;DHT22;34933;40.968;14.538;2023-11-21T06:10:45;12.70;99.90
48768;DHT22;34933;40.968;14.538;2023-11-21T06:13:33;12.80;99.90
48768;DHT22;34933;40.968;14.538;2023-11-21T06:16:21;12.90;99.90
48768;DHT22;34933;40.968;14.538;2023-11-21T06:19:05;12.90;99.90
48768;DHT22;34933;40.968;14.538;2023-11-21T06:21:50;13.00;99.90
48768;DHT22;34933;40.968;14.538;2023-11-21T06:24:34;13.10;99.90
48768;DHT22;34933;40.968;14.538;2023-11-21T06:27:19;13.10;99.90
48768;DHT22;34933;40.968;14.538;2023-11-21T06:30:05;13.10;99.90
48768;DHT22;34933;40.968;14.538;2023-11-21T06:32:51;13.30;99.90
48768;DHT22;34933;40.968;14.538;2023-11-21T06:35:36;13.40;99.90
48768;DHT22;34933;40.968;14.538;2023-11-21T06:38:21;13.40;99.90
48768;DHT22;34933;40.968;14.538;2023-11-21T06:41:06;13.40;99.90
48768;DHT22;34933;40.968;14.538;2023-11-21T06:43:50;13.40;99.90
48768;DHT22;34933;40.968;14.538;2023-11-21T06:46:35;13.30;99.90
48768;DHT22;34933;40.968;14.538;2023-11-21T06:49:19;13.40;99.90
48768;DHT22;34933;40.968;14.538;2023-11-21T06:52:05;13.40;99.90
48768;DHT22;34933;40.968;14.538;2023-11-21T06:54:49;13.50;99.90
48768;DHT22;34933;40.968;14.538;2023-11-21T06:57:34;13.50;99.90
48768;DHT22;34933;40.968;14.538;2023-11-21T07:00:18;13.50;99.90
48768;DHT22;34933;40.968;14.538;2023-11-21T07:03:03;13.70;99.90
48768;DHT22;34933;40.968;14.538;2023-11-21T07:05:48;13.70;99.90
48768;DHT22;34933;40.968;14.538;2023-11-21T07:08:33;13.90;99.90
48768;DHT22;34933;40.968;14.538;2023-11-21T07:11:17;13.80;99.90
48768;DHT22;34933;40.968;14.538;2023-11-21T07:14:02;13.90;99.90
48768;DHT22;34933;40.968;14.538;2023-11-21T07:16:51;14.00;99.90
48768;DHT22;34933;40.968;14.538;2023-11-21T07:19:36;14.20;99.90
48768;DHT22;34933;40.968;14.538;2023-11-21T07:22:21;14.30;99.90
48768;DHT22;34933;40.968;14.538;2023-11-21T07:25:06;14.50;99.90
48768;DHT22;34933;40.968;14.538;2023-11-21T07:27:51;14.70;99.90
48768;DHT22;34933;40.968;14.538;2023-11-21T07:30:37;14.90;99.90
48768;DHT22;34933;40.968;14.538;2023-11-21T07:33:22;15.10;99.90
48768;DHT22;34933;40.968;14.538;2023-11-21T07:36:07;15.20;99.90
48768;DHT22;34933;40.968;14.538;2023-11-21T07:38:52;15.50;99.90
48768;DHT22;34933;40.968;14.538;2023-11-21T07:41:37;15.80;99.90
48768;DHT22;34933;40.968;14.538;2023-11-21T07:44:29;15.90;99.90
48768;DHT22;34933;40.968;14.538;2023-11-21T07:47:13;16.20;99.90
48768;DHT22;34933;40.968;14.538;2023-11-21T07:49:58;16.50;99.90
48768;DHT22;34933;40.968;14.538;2023-11-21T07:52:43;16.80;99.90
48768;DHT22;34933;40.968;14.538;2023-11-21T07:55:27;17.00;99.90
48768;DHT22;34933;40.968;14.538;2023-11-21T07:58:12;17.20;99.90
48768;DHT22;34933;40.968;14.538;2023-11-21T08:00:56;17.40;99.90
48768;DHT22;34933;40.968;14.538;2023-11-21T08:03:41;17.60;99.90
48768;DHT22;34933;40.968;14.538;2023-11-21T08:06:26;17.70;99.90
48768;DHT22;34933;40.968;14.538;2023-11-21T08:09:10;17.90;99.90
48768;DHT22;34933;40.968;14.538;2023-11-21T08:11:56;18.10;99.90
48768;DHT22;34933;40.968;14.538;2023-11-21T08:14:41;18.20;99.90
48768;DHT22;34933;40.968;14.538;2023-11-21T08:17:26;18.40;99.90
48768;DHT22;34933;40.968;14.538;2023-11-21T08:20:10;18.50;99.90
48768;DHT22;34933;40.968;14.538;2023-11-21T08:22:55;18.60;99.90
48768;DHT22;34933;40.968;14.538;2023-11-21T08:25:42;18.60;99.90
48768;DHT22;34933;40.968;14.538;2023-11-21T08:28:27;18.60;99.90
48768;DHT22;34933;40.968;14.538;2023-11-21T08:31:11;18.60;99.90
48768;DHT22;34933;40.968;14.538;2023-11-21T08:33:56;18.60;99.90
48768;DHT22;34933;40.968;14.538;2023-11-21T08:36:44;18.70;99.90
48768;DHT22;34933;40.968;14.538;2023-11-21T08:39:28;18.80;99.90
48768;DHT22;34933;40.968;14.538;2023-11-21T08:42:14;19.10;99.90
48768;DHT22;34933;40.968;14.538;2023-11-21T08:44:59;19.30;99.90
48768;DHT22;34933;40.968;14.538;2023-11-21T08:47:44;19.50;99.90
48768;DHT22;34933;40.968;14.538;2023-11-21T08:50:29;19.80;99.90
48768;DHT22;34933;40.968;14.538;2023-11-21T08:53:13;20.10;99.90
48768;DHT22;34933;40.968;14.538;2023-11-21T08:55:58;20.20;99.90
48768;DHT22;34933;40.968;14.538;2023-11-21T08:58:43;20.10;99.90
48768;DHT22;34933;40.968;14.538;2023-11-21T09:01:28;20.20;99.90
48768;DHT22;34933;40.968;14.538;2023-11-21T09:04:15;20.20;99.90
48768;DHT22;34933;40.968;14.538;2023-11-21T09:07:00;20.10;99.90
48768;DHT22;34933;40.968;14.538;2023-11-21T09:09:44;20.20;99.90
48768;DHT22;34933;40.968;14.538;2023-11-21T09:12:29;20.20;99.90
48768;DHT22;34933;40.968;14.538;2023-11-21T09:15:13;20.40;99.90
48768;DHT22;34933;40.968;14.538;2023-11-21T09:18:00;20.50;99.90
48768;DHT22;34933;40.968;14.538;2023-11-21T09:20:45;20.40;99.90
48768;DHT22;34933;40.968;14.538;2023-11-21T09:23:30;20.60;99.90
48768;DHT22;34933;40.968;14.538;2023-11-21T09:26:14;20.50;99.90
48768;DHT22;34933;40.968;14.538;2023-11-21T09:29:00;20.40;99.90
48768;DHT22;34933;40.968;14.538;2023-11-21T09:31:46;20.20;99.90
48768;DHT22;34933;40.968;14.538;2023-11-21T09:34:31;20.10;99.90
48768;DHT22;34933;40.968;14.538;2023-11-21T09:37:16;20.00;99.90
48768;DHT22;34933;40.968;14.538;2023-11-21T09:40:01;20.00;99.90
48768;DHT22;34933;40.968;14.538;2023-11-21T09:42:57;19.90;99.90
48768;DHT22;34933;40.968;14.538;2023-11-21T09:45:48;19.90;99.90
48768;DHT22;34933;40.968;14.538;2023-11-21T09:48:36;19.90;99.90
48768;DHT22;34933;40.968;14.538;2023-11-21T09:51:24;20.00;99.90
48768;DHT22;34933;40.968;14.538;2023-11-21T09:54:11;20.10;99.90
48768;DHT22;34933;40.968;14.538;2023-11-21T09:56:57;20.10;99.90
48768;DHT22;34933;40.968;14.538;2023-11-21T09:59:43;20.00;99.90
48768;DHT22;34933;40.968;14.538;2023-11-21T10:02:29;20.00;99.90
48768;DHT22;34933;40.968;14.538;2023-11-21T10:05:15;20.00;99.90
48768;DHT22;34933;40.968;14.538;2023-11-21T10:08:03;20.00;99.90
48768;DHT22;34933;40.968;14.538;2023-11-21T10:10:53;20.20;99.90
48768;DHT22;34933;40.968;14.538;2023-11-21T10:13:38;20.10;99.90
48768;DHT22;34933;40.968;14.538;2023-11-21T10:16:26;20.20;99.90
48768;DHT22;34933;40.968;14.538;2023-11-21T10:19:12;20.30;99.90
48768;DHT22;34933;40.968;14.538;2023-11-21T10:22:01;20.20;99.90
48768;DHT22;34933;40.968;14.538;2023-11-21T10:24:46;20.20;99.90
48768;DHT22;34933;40.968;14.538;2023-11-21T10:27:30;20.10;99.90
48768;DHT22;34933;40.968;14.538;2023-11-21T10:30:15;20.10;99.90
48768;DHT22;34933;40.968;14.538;2023-11-21T10:33:00;20.10;99.90
48768;DHT22;34933;40.968;14.538;2023-11-21T10:35:47;20.30;99.90
48768;DHT22;34933;40.968;14.538;2023-11-21T10:38:43;20.40;99.90
48768;DHT22;34933;40.968;14.538;2023-11-21T10:41:29;20.70;99.90
48768;DHT22;34933;40.968;14.538;2023-11-21T10:44:17;20.80;99.90
48768;DHT22;34933;40.968;14.538;2023-11-21T10:47:08;20.90;99.90
48768;DHT22;34933;40.968;14.538;2023-11-21T10:49:55;21.10;99.90
48768;DHT22;34933;40.968;14.538;2023-11-21T10:52:40;21.20;99.90
48768;DHT22;34933;40.968;14.538;2023-11-21T10:55:27;21.30;99.90
48768;DHT22;34933;40.968;14.538;2023-11-21T10:58:13;21.50;99.90
48768;DHT22;34933;40.968;14.538;2023-11-21T11:00:59;21.60;99.90
48768;DHT22;34933;40.968;14.538;2023-11-21T11:03:44;21.60;99.90
48768;DHT22;34933;40.968;14.538;2023-11-21T11:06:29;21.60;99.90
48768;DHT22;34933;40.968;14.538;2023-11-21T11:09:14;21.60;99.90
48768;DHT22;34933;40.968;14.538;2023-11-21T11:12:04;21.50;99.90
48768;DHT22;34933;40.968;14.538;2023-11-21T11:14:51;21.50;99.90
48768;DHT22;34933;40.968;14.538;2023-11-21T11:17:37;21.50;99.90
48768;DHT22;34933;40.968;14.538;2023-11-21T11:20:31;21.40;99.90
48768;DHT22;34933;40.968;14.538;2023-11-21T11:23:37;21.70;99.90
48768;DHT22;34933;40.968;14.538;2023-11-21T11:26:41;21.60;99.90
48768;DHT22;34933;40.968;14.538;2023-11-21T11:29:46;21.60;99.90
48768;DHT22;34933;40.968;14.538;2023-11-21T11:32:49;21.60;99.90
48768;DHT22;34933;40.968;14.538;2023-11-21T11:38:46;22.10;99.90
48768;DHT22;34933;40.968;14.538;2023-11-21T11:41:34;22.00;99.90
48768;DHT22;34933;40.968;14.538;2023-11-21T11:47:35;21.40;99.90
48768;DHT22;34933;40.968;14.538;2023-11-21T11:50:22;21.10;99.90
48768;DHT22;34933;40.968;14.538;2023-11-21T11:53:14;21.00;99.90
48768;DHT22;34933;40.968;14.538;2023-11-21T11:56:22;21.00;99.90
48768;DHT22;34933;40.968;14.538;2023-11-21T11:59:07;21.10;99.90
48768;DHT22;34933;40.968;14.538;2023-11-21T12:01:53;21.10;99.90
48768;DHT22;34933;40.968;14.538;2023-11-21T12:04:41;21.20;99.90
48768;DHT22;34933;40.968;14.538;2023-11-21T12:07:42;21.30;99.90
48768;DHT22;34933;40.968;14.538;2023-11-21T12:10:29;21.50;99.90
48768;DHT22;34933;40.968;14.538;2023-11-21T12:13:14;21.60;99.90
48768;DHT22;34933;40.968;14.538;2023-11-21T12:15:59;21.50;99.90
48768;DHT22;34933;40.968;14.538;2023-11-21T12:18:43;21.50;99.90
48768;DHT22;34933;40.968;14.538;2023-11-21T12:21:28;21.60;99.90
48768;DHT22;34933;40.968;14.538;2023-11-21T12:24:14;21.60;99.90
48768;DHT22;34933;40.968;14.538;2023-11-21T12:27:01;21.40;99.90
48768;DHT22;34933;40.968;14.538;2023-11-21T12:29:46;21.30;99.90
48768;DHT22;34933;40.968;14.538;2023-11-21T12:32:30;21.30;99.90
48768;DHT22;34933;40.968;14.538;2023-11-21T12:35:15;21.30;99.90
48768;DHT22;34933;40.968;14.538;2023-11-21T12:38:03;21.40;99.90
48768;DHT22;34933;40.968;14.538;2023-11-21T12:40:47;21.30;99.90
48768;DHT22;34933;40.968;14.538;2023-11-21T12:43:32;21.40;99.90
48768;DHT22;34933;40.968;14.538;2023-11-21T12:46:19;21.40;99.90
48768;DHT22;34933;40.968;14.538;2023-11-21T12:49:04;21.30;99.90
48768;DHT22;34933;40.968;14.538;2023-11-21T12:51:49;21.40;99.90
48768;DHT22;34933;40.968;14.538;2023-11-21T12:54:34;21.30;99.90
48768;DHT22;34933;40.968;14.538;2023-11-21T12:57:19;21.20;99.90
48768;DHT22;34933;40.968;14.538;2023-11-21T13:00:05;21.20;99.90
48768;DHT22;34933;40.968;14.538;2023-11-21T13:02:58;21.20;99.90
48768;DHT22;34933;40.968;14.538;2023-11-21T13:05:43;21.20;99.90
48768;DHT22;34933;40.968;14.538;2023-11-21T13:08:31;21.20;99.90
48768;DHT22;34933;40.968;14.538;2023-11-21T13:11:17;21.20;99.90
48768;DHT22;34933;40.968;14.538;2023-11-21T13:14:02;21.10;99.90
48768;DHT22;34933;40.968;14.538;2023-11-21T13:16:47;21.10;99.90
48768;DHT22;34933;40.968;14.538;2023-11-21T13:19:32;21.10;99.90
48768;DHT22;34933;40.968;14.538;2023-11-21T13:22:17;21.00;99.90
48768;DHT22;34933;40.968;14.538;2023-11-21T13:25:03;21.00;99.90
48768;DHT22;34933;40.968;14.538;2023-11-21T13:27:51;20.90;99.90
48768;DHT22;34933;40.968;14.538;2023-11-21T13:30:36;21.00;99.90
48768;DHT22;34933;40.968;14.538;2023-11-21T13:33:21;20.90;99.90
48768;DHT22;34933;40.968;14.538;2023-11-21T13:36:12;20.80;99.90
48768;DHT22;34933;40.968;14.538;2023-11-21T13:38:59;20.70;99.90
48768;DHT22;34933;40.968;14.538;2023-11-21T13:41:48;20.70;99.90
48768;DHT22;34933;40.968;14.538;2023-11-21T13:44:35;20.60;99.90
48768;DHT22;34933;40.968;14.538;2023-11-21T13:47:22;20.50;99.90
48768;DHT22;34933;40.968;14.538;2023-11-21T13:50:09;20.40;99.90
48768;DHT22;34933;40.968;14.538;2023-11-21T13:53:02;20.30;99.90
48768;DHT22;34933;40.968;14.538;2023-11-21T13:56:03;20.30;99.90
48768;DHT22;34933;40.968;14.538;2023-11-21T13:58:48;20.40;99.90
48768;DHT22;34933;40.968;14.538;2023-11-21T14:01:35;20.40;99.90
48768;DHT22;34933;40.968;14.538;2023-11-21T14:04:38;20.30;99.90
48768;DHT22;34933;40.968;14.538;2023-11-21T14:07:44;20.20;99.90
48768;DHT22;34933;40.968;14.538;2023-11-21T14:10:32;20.10;99.90
48768;DHT22;34933;40.968;14.538;2023-11-21T14:13:24;20.10;99.90
48768;DHT22;34933;40.968;14.538;2023-11-21T14:16:08;20.10;99.90
48768;DHT22;34933;40.968;14.538;2023-11-21T14:18:54;20.00;99.90
48768;DHT22;34933;40.968;14.538;2023-11-21T14:21:48;20.00;99.90
48768;DHT22;34933;40.968;14.538;2023-11-21T14:24:35;19.90;99.90
48768;DHT22;34933;40.968;14.538;2023-11-21T14:27:20;19.90;99.90
48768;DHT22;34933;40.968;14.538;2023-11-21T14:30:06;19.90;99.90
48768;DHT22;34933;40.968;14.538;2023-11-21T14:32:50;19.90;99.90
48768;DHT22;34933;40.968;14.538;2023-11-21T14:35:35;19.80;99.90
48768;DHT22;34933;40.968;14.538;2023-11-21T14:38:20;19.80;99.90
48768;DHT22;34933;40.968;14.538;2023-11-21T14:41:05;19.80;99.90
48768;DHT22;34933;40.968;14.538;2023-11-21T14:43:52;19.70;99.90
48768;DHT22;34933;40.968;14.538;2023-11-21T14:46:38;19.60;99.90
48768;DHT22;34933;40.968;14.538;2023-11-21T14:49:24;19.60;99.90
48768;DHT22;34933;40.968;14.538;2023-11-21T14:52:11;19.50;99.90
48768;DHT22;34933;40.968;14.538;2023-11-21T14:55:16;19.40;99.90
48768;DHT22;34933;40.968;14.538;2023-11-21T14:58:04;19.30;99.90
48768;DHT22;34933;40.968;14.538;2023-11-21T15:00:49;19.20;99.90
48768;DHT22;34933;40.968;14.538;2023-11-21T15:03:35;19.10;99.90
48768;DHT22;34933;40.968;14.538;2023-11-21T15:06:28;19.00;99.90
48768;DHT22;34933;40.968;14.538;2023-11-21T15:09:14;18.80;99.90
48768;DHT22;34933;40.968;14.538;2023-11-21T15:12:00;18.60;99.90
48768;DHT22;34933;40.968;14.538;2023-11-21T15:14:58;18.40;99.90
48768;DHT22;34933;40.968;14.538;2023-11-21T15:17:43;18.20;99.90
48768;DHT22;34933;40.968;14.538;2023-11-21T15:20:28;17.80;99.90
48768;DHT22;34933;40.968;14.538;2023-11-21T15:23:12;17.60;99.90
48768;DHT22;34933;40.968;14.538;2023-11-21T15:25:57;17.40;99.90
48768;DHT22;34933;40.968;14.538;2023-11-21T15:28:42;17.20;99.90
48768;DHT22;34933;40.968;14.538;2023-11-21T15:31:26;17.20;99.90
48768;DHT22;34933;40.968;14.538;2023-11-21T15:34:11;17.10;99.90
48768;DHT22;34933;40.968;14.538;2023-11-21T15:36:56;17.00;99.90
48768;DHT22;34933;40.968;14.538;2023-11-21T15:39:40;17.10;99.90
48768;DHT22;34933;40.968;14.538;2023-11-21T15:42:25;17.10;99.90
48768;DHT22;34933;40.968;14.538;2023-11-21T15:45:11;17.00;99.90
48768;DHT22;34933;40.968;14.538;2023-11-21T15:47:55;17.10;99.90
48768;DHT22;34933;40.968;14.538;2023-11-21T15:50:42;17.00;99.90
48768;DHT22;34933;40.968;14.538;2023-11-21T15:53:27;16.90;99.90
48768;DHT22;34933;40.968;14.538;2023-11-21T15:56:11;16.80;99.90
48768;DHT22;34933;40.968;14.538;2023-11-21T15:58:56;16.70;99.90
48768;DHT22;34933;40.968;14.538;2023-11-21T16:01:41;16.60;99.90
48768;DHT22;34933;40.968;14.538;2023-11-21T16:04:30;16.60;99.90
48768;DHT22;34933;40.968;14.538;2023-11-21T16:07:14;16.60;99.90
48768;DHT22;34933;40.968;14.538;2023-11-21T16:09:59;16.60;99.90
48768;DHT22;34933;40.968;14.538;2023-11-21T16:12:43;16.60;99.90
48768;DHT22;34933;40.968;14.538;2023-11-21T16:15:28;16.70;99.90
48768;DHT22;34933;40.968;14.538;2023-11-21T16:18:13;16.80;99.90
48768;DHT22;34933;40.968;14.538;2023-11-21T16:20:57;16.80;99.90
48768;DHT22;34933;40.968;14.538;2023-11-21T16:23:42;16.70;99.90
48768;DHT22;34933;40.968;14.538;2023-11-21T16:26:28;16.70;99.90
48768;DHT22;34933;40.968;14.538;2023-11-21T16:29:13;16.70;99.90
48768;DHT22;34933;40.968;14.538;2023-11-21T16:31:57;16.60;99.90
48768;DHT22;34933;40.968;14.538;2023-11-21T16:34:42;16.60;99.90
48768;DHT22;34933;40.968;14.538;2023-11-21T16:37:26;16.50;99.90
48768;DHT22;34933;40.968;14.538;2023-11-21T16:40:11;16.50;99.90
48768;DHT22;34933;40.968;14.538;2023-11-21T16:42:56;16.60;99.90
48768;DHT22;34933;40.968;14.538;2023-11-21T16:45:41;16.60;99.90
48768;DHT22;34933;40.968;14.538;2023-11-21T16:48:25;16.50;99.90
48768;DHT22;34933;40.968;14.538;2023-11-21T16:51:10;16.60;99.90
48768;DHT22;34933;40.968;14.538;2023-11-21T16:53:56;16.60;99.90
48768;DHT22;34933;40.968;14.538;2023-11-21T16:56:40;16.60;99.90
48768;DHT22;34933;40.968;14.538;2023-11-21T16:59:24;16.60;99.90
48768;DHT22;34933;40.968;14.538;2023-11-21T17:02:09;16.60;99.90
48768;DHT22;34933;40.968;14.538;2023-11-21T17:04:54;16.70;99.90
48768;DHT22;34933;40.968;14.538;2023-11-21T17:07:38;16.70;99.90
48768;DHT22;34933;40.968;14.538;2023-11-21T17:10:23;16.60;99.90
48768;DHT22;34933;40.968;14.538;2023-11-21T17:13:08;16.60;99.90
48768;DHT22;34933;40.968;14.538;2023-11-21T17:15:52;16.60;99.90
48768;DHT22;34933;40.968;14.538;2023-11-21T17:18:37;16.50;99.90